createdAt,value
2023-11-10T00:03:42.418Z,99553.00
2023-11-10T00:08:44.323Z,99552.56
2023-11-10T00:13:48.507Z,99551.09
2023-11-10T00:18:50.536Z,99555.22
2023-11-10T00:23:55.091Z,99549.72
2023-11-10T00:28:59.015Z,99558.50
2023-11-10T00:34:00.892Z,99562.38
2023-11-10T00:39:02.846Z,99569.34
2023-11-10T00:44:08.162Z,99567.50
2023-11-10T00:49:10.994Z,99565.03
2023-11-10T00:54:13.326Z,99554.78
2023-11-10T00:59:15.426Z,99556.81
2023-11-10T01:04:17.303Z,99555.81
2023-11-10T01:09:19.730Z,99558.28
2023-11-10T01:14:24.862Z,99556.75
2023-11-10T01:19:26.641Z,99547.28
2023-11-10T01:24:29.327Z,99548.31
2023-11-10T01:29:31.237Z,99540.56
2023-11-10T01:34:33.063Z,99544.84
2023-11-10T01:39:35.199Z,99538.34
2023-11-10T01:44:40.893Z,99531.16
2023-11-10T01:49:43.200Z,99532.38
2023-11-10T01:54:45.003Z,99540.56
2023-11-10T01:59:48.499Z,99535.88
2023-11-10T02:04:52.501Z,99532.63
2023-11-10T02:09:54.500Z,99531.59
2023-11-10T02:14:56.345Z,99533.25
2023-11-10T02:19:58.374Z,99524.44
2023-11-10T02:25:04.038Z,99536.53
2023-11-10T02:30:06.581Z,99524.88
2023-11-10T02:35:09.637Z,99538.75
2023-11-10T02:40:11.796Z,99518.50
2023-11-10T02:45:14.439Z,99532.44
2023-11-10T02:50:19.110Z,99536.53
2023-11-10T02:55:24.345Z,99525.91
2023-11-10T03:00:26.668Z,99520.56
2023-11-10T03:05:28.469Z,99522.84
2023-11-10T03:10:32.827Z,99521.03
2023-11-10T03:15:36.848Z,99518.34
2023-11-10T03:20:39.553Z,99518.34
2023-11-10T03:25:41.307Z,99516.28
2023-11-10T03:30:43.449Z,99518.16
2023-11-10T03:35:47.418Z,99513.03
2023-11-10T03:40:51.636Z,99514.66
2023-11-10T03:45:53.899Z,99513.03
2023-11-10T03:50:56.832Z,99510.56
2023-11-10T03:55:58.759Z,99514.03
2023-11-10T04:01:02.274Z,99508.72
2023-11-10T04:06:04.194Z,99510.75
2023-11-10T04:11:08.266Z,99515.25
2023-11-10T04:16:22.819Z,99520.56
2023-11-10T04:21:27.349Z,99509.13
2023-11-10T04:26:29.331Z,99526.91
2023-11-10T04:31:32.661Z,99515.84
2023-11-10T04:36:37.179Z,99519.31
2023-11-10T04:41:40.122Z,99511.50
2023-11-10T04:46:45.408Z,99515.22
2023-11-10T04:51:47.377Z,99513.94
2023-11-10T04:56:49.175Z,99512.81
2023-11-10T05:01:52.952Z,99501.78
2023-11-10T05:06:54.800Z,99516.28
2023-11-10T05:11:56.605Z,99515.59
2023-11-10T05:17:01.558Z,99508.66
2023-11-10T05:22:03.631Z,99507.66
2023-11-10T05:27:06.578Z,99502.97
2023-11-10T05:32:11.245Z,99493.72
2023-11-10T05:37:12.977Z,99500.06
2023-11-10T05:42:16.993Z,99499.19
2023-11-10T05:47:21.708Z,99497.09
2023-11-10T05:52:23.594Z,99503.00
2023-11-10T05:57:26.613Z,99500.53
2023-11-10T06:02:30.162Z,99501.22
2023-11-10T06:07:35.189Z,99514.16
2023-11-10T06:12:39.249Z,99505.25
2023-11-10T06:17:41.136Z,99508.34
2023-11-10T06:22:43.094Z,99509.78
2023-11-10T06:27:45.366Z,99511.41
2023-11-10T06:32:50.610Z,99506.09
2023-11-10T06:38:02.786Z,99523.22
2023-11-10T06:43:04.896Z,99526.66
2023-11-10T06:48:09.453Z,99520.31
2023-11-10T06:53:11.292Z,99527.22
2023-11-10T06:58:17.213Z,99528.03
2023-11-10T07:03:21.058Z,99533.81
2023-11-10T07:08:25.990Z,99527.03
2023-11-10T07:13:28.112Z,99525.59
2023-11-10T07:18:32.383Z,99532.53
2023-11-10T07:23:34.872Z,99527.22
2023-11-10T07:28:38.949Z,99534.78
2023-11-10T07:33:43.312Z,99533.56
2023-11-10T07:38:47.651Z,99534.41
2023-11-10T07:43:49.609Z,99531.53
2023-11-10T07:48:54.575Z,99538.34
2023-11-10T07:53:56.524Z,99536.72
2023-11-10T07:59:00.898Z,99534.66
2023-11-10T08:04:06.387Z,99532.84
2023-11-10T08:09:08.271Z,99537.50
2023-11-10T08:14:12.464Z,99546.38
2023-11-10T08:19:14.336Z,99553.97
2023-11-10T08:24:17.114Z,99553.59
2023-11-10T08:29:18.919Z,99553.63
2023-11-10T08:34:22.588Z,99563.31
2023-11-10T08:39:24.573Z,99560.88
2023-11-10T08:44:28.093Z,99564.75
2023-11-10T08:49:30.112Z,99562.03
2023-11-10T08:54:34.966Z,99571.38
2023-11-10T08:59:36.925Z,99578.94
2023-11-10T09:04:38.917Z,99565.22
2023-11-10T09:09:42.355Z,99571.84
2023-11-10T09:14:44.228Z,99563.28
2023-11-10T09:19:46.578Z,99571.91
2023-11-10T09:24:49.588Z,99571.53
2023-11-10T09:29:51.420Z,99582.88
2023-11-10T09:34:54.326Z,99591.13
2023-11-10T09:39:58.986Z,99586.81
2023-11-10T09:45:03.116Z,99587.69
2023-11-10T09:50:08.445Z,99588.09
2023-11-10T09:55:11.353Z,99596.09
2023-11-10T10:00:14.589Z,99582.16
2023-11-10T10:05:16.815Z,99588.97
2023-11-10T10:10:20.435Z,99599.00
2023-11-10T10:15:27.456Z,99580.72
2023-11-10T10:20:32.197Z,99584.44
2023-11-10T10:25:34.804Z,99590.59
2023-11-10T10:30:42.656Z,99610.31
2023-11-10T10:35:48.335Z,99598.22
2023-11-10T10:40:50.751Z,99608.25
2023-11-10T10:45:56.755Z,99611.97
2023-11-10T10:51:00.307Z,99603.53
2023-11-10T10:56:03.110Z,99605.34
2023-11-10T11:01:09.967Z,99600.84
2023-11-10T11:06:23.093Z,99602.09
2023-11-10T11:12:00.200Z,99604.78
2023-11-10T11:17:14.035Z,99603.56
2023-11-10T11:22:15.953Z,99596.34
2023-11-10T11:27:25.596Z,99592.63
2023-11-10T11:32:31.888Z,99589.91
2023-11-10T11:37:33.923Z,99587.59
2023-11-10T11:42:41.849Z,99580.69
2023-11-10T11:47:45.213Z,99580.28
2023-11-10T11:52:47.600Z,99585.00
2023-11-10T11:57:51.474Z,99583.00
2023-11-10T12:02:59.612Z,99588.75
2023-11-10T12:08:02.286Z,99581.13
2023-11-10T12:13:09.325Z,99578.63
2023-11-10T12:18:12.685Z,99579.94
2023-11-10T12:23:15.819Z,99587.94
2023-11-10T12:28:17.755Z,99585.75
2023-11-10T12:33:19.628Z,99584.41
2023-11-10T12:38:24.257Z,99589.81
2023-11-10T12:43:28.799Z,99590.28
2023-11-10T12:48:34.351Z,99592.22
2023-11-10T12:53:39.888Z,99595.34
2023-11-10T12:58:44.090Z,99610.31
2023-11-10T13:03:46.231Z,99602.72
2023-11-10T13:08:50.354Z,99597.38
2023-11-10T13:13:53.870Z,99593.47
2023-11-10T13:18:57.347Z,99601.88
2023-11-10T13:24:01.892Z,99604.78
2023-11-10T13:29:06.457Z,99604.16
2023-11-10T13:34:10.811Z,99585.66
2023-11-10T13:39:15.157Z,99596.34
2023-11-10T13:44:19.342Z,99598.22
2023-11-10T13:49:21.251Z,99602.50
2023-11-10T13:54:24.749Z,99603.94
2023-11-10T13:59:28.773Z,99605.19
2023-11-10T14:04:30.651Z,99600.03
2023-11-10T14:09:35.135Z,99602.69
2023-11-10T14:14:37.507Z,99599.84
2023-11-10T14:19:39.538Z,99608.03
2023-11-10T14:24:41.761Z,99608.25
2023-11-10T14:29:43.773Z,99617.69
2023-11-10T14:34:49.103Z,99618.06
2023-11-10T14:39:51.772Z,99609.44
2023-11-10T14:44:57.832Z,99624.81
2023-11-10T14:50:02.578Z,99619.88
2023-11-10T14:55:07.398Z,99623.34
2023-11-10T15:00:13.774Z,99621.88
2023-11-10T15:05:20.360Z,99623.63
2023-11-10T15:10:22.186Z,99624.19
2023-11-10T15:15:24.443Z,99623.31
2023-11-10T15:20:29.356Z,99623.47
2023-11-10T15:25:31.286Z,99614.22
2023-11-10T15:30:34.432Z,99615.66
2023-11-10T15:35:51.636Z,99603.75
2023-11-10T15:41:01.463Z,99609.44
2023-11-10T15:46:04.653Z,99608.00
2023-11-10T15:51:06.648Z,99607.78
2023-11-10T15:56:08.572Z,99604.66
2023-11-10T16:01:11.640Z,99605.47
2023-11-10T16:06:13.752Z,99613.28
2023-11-10T16:11:15.599Z,99604.66
2023-11-10T16:16:18.493Z,99610.56
2023-11-10T16:21:21.948Z,99611.34
2023-11-10T16:26:27.062Z,99607.06
2023-11-10T16:31:29.016Z,99607.25
2023-11-10T16:36:31.426Z,99614.41
2023-11-10T16:41:36.300Z,99617.50
2023-11-10T16:46:39.360Z,99610.31
2023-11-10T16:51:42.361Z,99614.59
2023-11-10T16:56:44.687Z,99622.13
2023-11-10T17:01:46.616Z,99618.66
2023-11-10T17:06:48.582Z,99618.84
2023-11-10T17:11:52.863Z,99629.50
2023-11-10T17:16:57.069Z,99630.34
2023-11-10T17:22:02.194Z,99626.84
2023-11-10T17:27:04.252Z,99638.50
2023-11-10T17:32:07.164Z,99634.59
2023-11-10T17:37:12.821Z,99642.56
2023-11-10T17:42:14.770Z,99637.13
2023-11-10T17:47:17.949Z,99638.91
2023-11-10T17:52:22.450Z,99646.63
2023-11-10T17:57:27.240Z,99647.66
2023-11-10T18:02:30.186Z,99654.84
2023-11-10T18:07:31.997Z,99651.72
2023-11-10T18:12:33.770Z,99644.38
2023-11-10T18:17:37.137Z,99650.69
2023-11-10T18:22:40.135Z,99649.41
2023-11-10T18:27:45.502Z,99652.03
2023-11-10T18:33:14.146Z,99650.22
2023-11-10T18:38:19.230Z,99655.31
2023-11-10T18:43:27.880Z,99655.31
2023-11-10T18:48:32.860Z,99656.75
2023-11-10T18:53:37.828Z,99655.09
2023-11-10T18:58:39.905Z,99658.78
2023-11-10T19:03:41.789Z,99655.31
2023-11-10T19:08:59.060Z,99658.53
2023-11-10T19:14:01.017Z,99660.34
2023-11-10T19:19:06.945Z,99663.19
2023-11-10T19:24:12.772Z,99665.84
2023-11-10T19:29:17.399Z,99664.41
2023-11-10T19:34:19.286Z,99662.31
2023-11-10T19:39:25.370Z,99668.63
2023-11-10T19:44:27.242Z,99672.50
2023-11-10T19:49:30.054Z,99663.88
2023-11-10T20:05:14.256Z,99675.38
2023-11-10T20:10:16.386Z,99677.19
2023-11-10T20:15:18.866Z,99684.34
2023-11-10T20:20:22.929Z,99691.53
2023-11-10T20:25:25.436Z,99693.16
2023-11-10T20:30:29.395Z,99696.66
2023-11-10T20:35:37.226Z,99703.63
2023-11-10T20:40:44.020Z,99706.28
2023-11-10T20:45:46.020Z,99707.91
2023-11-10T20:50:47.913Z,99709.59
2023-11-10T20:55:51.647Z,99704.44
2023-11-10T21:00:53.505Z,99708.75
2023-11-10T21:05:55.304Z,99710.56
2023-11-10T21:10:57.396Z,99707.31
2023-11-10T21:16:04.687Z,99702.91
2023-11-10T21:21:06.808Z,99705.00
2023-11-10T21:26:10.774Z,99696.78
2023-11-10T21:31:17.630Z,99700.69
2023-11-10T21:36:22.886Z,99687.94
2023-11-10T21:41:28.300Z,99697.13
2023-11-10T21:46:33.838Z,99696.41
2023-11-10T21:51:40.324Z,99695.59
2023-11-10T21:56:42.222Z,99699.78
2023-11-10T22:01:46.544Z,99694.84
2023-11-10T22:06:48.522Z,99701.53
2023-11-10T22:11:50.331Z,99707.56
2023-11-10T22:16:56.448Z,99705.31
2023-11-10T22:22:04.669Z,99719.41
2023-11-10T22:27:06.573Z,99720.31
2023-11-10T22:32:09.668Z,99721.69
2023-11-10T22:37:11.664Z,99720.31
2023-11-10T22:42:16.791Z,99709.88
2023-11-10T22:47:18.731Z,99719.69
2023-11-10T22:52:20.552Z,99724.81
2023-11-10T22:57:24.558Z,99721.78
2023-11-10T23:02:32.600Z,99721.69
2023-11-10T23:07:34.571Z,99717.19
2023-11-10T23:12:43.848Z,99722.22
2023-11-10T23:17:45.812Z,99730.31
2023-11-10T23:22:50.530Z,99723.09
2023-11-10T23:27:52.425Z,99729.28
2023-11-10T23:32:54.563Z,99728.47
2023-11-10T23:37:56.649Z,99724.44
2023-11-10T23:43:00.744Z,99721.78
2023-11-10T23:48:07.074Z,99729.06
2023-11-10T23:53:09.702Z,99726.88
2023-11-10T23:58:11.645Z,99719.72
